sensor_id;sensor_type;location;lat;lon;timestamp;temperature;humidity
4908;DHT22;64375;51.540;7.364;2023-02-28T00:01:30;4.50;83.80
4908;DHT22;64375;51.540;7.364;2023-02-28T00:04:01;4.70;84.00
4908;DHT22;64375;51.540;7.364;2023-02-28T00:06:32;4.90;83.00
4908;DHT22;64375;51.540;7.364;2023-02-28T00:09:05;4.90;82.10
4908;DHT22;64375;51.540;7.364;2023-02-28T00:11:32;4.70;80.40
4908;DHT22;64375;51.540;7.364;2023-02-28T00:14:06;4.80;83.50
4908;DHT22;64375;51.540;7.364;2023-02-28T00:16:40;5.00;82.10
4908;DHT22;64375;51.540;7.364;2023-02-28T00:19:08;4.80;80.00
4908;DHT22;64375;51.540;7.364;2023-02-28T00:21:42;4.40;80.30
4908;DHT22;64375;51.540;7.364;2023-02-28T00:24:14;4.40;82.50
4908;DHT22;64375;51.540;7.364;2023-02-28T00:26:51;4.60;83.30
4908;DHT22;64375;51.540;7.364;2023-02-28T00:29:21;4.60;81.60
4908;DHT22;64375;51.540;7.364;2023-02-28T00:31:49;4.50;81.00
4908;DHT22;64375;51.540;7.364;2023-02-28T00:34:17;4.80;86.40
4908;DHT22;64375;51.540;7.364;2023-02-28T00:36:45;5.10;84.30
4908;DHT22;64375;51.540;7.364;2023-02-28T00:39:17;5.00;80.80
4908;DHT22;64375;51.540;7.364;2023-02-28T00:41:51;4.90;81.00
4908;DHT22;64375;51.540;7.364;2023-02-28T00:44:25;5.40;86.10
4908;DHT22;64375;51.540;7.364;2023-02-28T00:46:56;5.60;84.10
4908;DHT22;64375;51.540;7.364;2023-02-28T00:49:24;5.50;79.80
4908;DHT22;64375;51.540;7.364;2023-02-28T00:51:55;5.40;80.50
4908;DHT22;64375;51.540;7.364;2023-02-28T00:54:25;5.70;84.60
4908;DHT22;64375;51.540;7.364;2023-02-28T00:56:56;5.60;80.20
4908;DHT22;64375;51.540;7.364;2023-02-28T00:59:27;5.60;79.60
4908;DHT22;64375;51.540;7.364;2023-02-28T01:01:55;5.60;82.80
4908;DHT22;64375;51.540;7.364;2023-02-28T01:04:26;5.90;84.30
4908;DHT22;64375;51.540;7.364;2023-02-28T01:06:53;5.90;79.30
4908;DHT22;64375;51.540;7.364;2023-02-28T01:09:21;5.60;78.00
4908;DHT22;64375;51.540;7.364;2023-02-28T01:11:53;5.40;80.40
4908;DHT22;64375;51.540;7.364;2023-02-28T01:14:21;5.60;83.30
4908;DHT22;64375;51.540;7.364;2023-02-28T01:16:52;5.60;79.60
4908;DHT22;64375;51.540;7.364;2023-02-28T01:19:20;5.20;78.20
4908;DHT22;64375;51.540;7.364;2023-02-28T01:21:48;5.10;80.40
4908;DHT22;64375;51.540;7.364;2023-02-28T01:24:22;5.30;81.80
4908;DHT22;64375;51.540;7.364;2023-02-28T01:26:50;5.40;80.90
4908;DHT22;64375;51.540;7.364;2023-02-28T01:29:21;5.20;78.90
4908;DHT22;64375;51.540;7.364;2023-02-28T01:31:49;5.00;79.20
4908;DHT22;64375;51.540;7.364;2023-02-28T01:34:18;5.40;85.20
4908;DHT22;64375;51.540;7.364;2023-02-28T01:36:46;5.70;84.00
4908;DHT22;64375;51.540;7.364;2023-02-28T01:39:14;5.70;79.90
4908;DHT22;64375;51.540;7.364;2023-02-28T01:41:44;5.60;79.30
4908;DHT22;64375;51.540;7.364;2023-02-28T01:47:19;6.30;85.40
4908;DHT22;64375;51.540;7.364;2023-02-28T01:49:47;6.20;79.60
4908;DHT22;64375;51.540;7.364;2023-02-28T01:52:18;6.30;82.30
4908;DHT22;64375;51.540;7.364;2023-02-28T01:54:50;6.70;86.40
4908;DHT22;64375;51.540;7.364;2023-02-28T01:57:24;6.50;78.70
4908;DHT22;64375;51.540;7.364;2023-02-28T01:59:58;6.00;76.30
4908;DHT22;64375;51.540;7.364;2023-02-28T02:02:29;5.80;79.80
4908;DHT22;64375;51.540;7.364;2023-02-28T02:05:00;6.10;83.50
4908;DHT22;64375;51.540;7.364;2023-02-28T02:07:37;5.90;77.80
4908;DHT22;64375;51.540;7.364;2023-02-28T02:10:10;5.60;77.00
4908;DHT22;64375;51.540;7.364;2023-02-28T02:13:08;5.70;80.40
4908;DHT22;64375;51.540;7.364;2023-02-28T02:15:44;5.90;82.20
4908;DHT22;64375;51.540;7.364;2023-02-28T02:18:37;5.70;78.00
4908;DHT22;64375;51.540;7.364;2023-02-28T02:24:47;6.40;89.30
4908;DHT22;64375;51.540;7.364;2023-02-28T02:27:35;6.40;80.90
4908;DHT22;64375;51.540;7.364;2023-02-28T02:36:34;6.60;80.00
4908;DHT22;64375;51.540;7.364;2023-02-28T02:39:14;6.10;75.70
4908;DHT22;64375;51.540;7.364;2023-02-28T02:41:46;5.90;78.20
4908;DHT22;64375;51.540;7.364;2023-02-28T02:44:24;6.30;84.50
4908;DHT22;64375;51.540;7.364;2023-02-28T02:47:03;6.20;78.20
4908;DHT22;64375;51.540;7.364;2023-02-28T02:49:43;5.90;76.70
4908;DHT22;64375;51.540;7.364;2023-02-28T02:52:18;6.10;81.70
4908;DHT22;64375;51.540;7.364;2023-02-28T02:54:49;6.20;78.90
4908;DHT22;64375;51.540;7.364;2023-02-28T02:57:25;5.80;75.50
4908;DHT22;64375;51.540;7.364;2023-02-28T03:00:02;5.40;76.70
4908;DHT22;64375;51.540;7.364;2023-02-28T03:02:32;5.50;79.80
4908;DHT22;64375;51.540;7.364;2023-02-28T03:05:04;5.50;78.20
4908;DHT22;64375;51.540;7.364;2023-02-28T03:07:34;5.20;76.00
4908;DHT22;64375;51.540;7.364;2023-02-28T03:12:59;5.70;86.50
4908;DHT22;64375;51.540;7.364;2023-02-28T03:15:37;5.80;79.40
4908;DHT22;64375;51.540;7.364;2023-02-28T03:18:20;5.60;76.50
4908;DHT22;64375;51.540;7.364;2023-02-28T03:21:06;6.00;86.40
4908;DHT22;64375;51.540;7.364;2023-02-28T03:23:42;6.40;85.50
4908;DHT22;64375;51.540;7.364;2023-02-28T03:26:19;6.00;76.40
4908;DHT22;64375;51.540;7.364;2023-02-28T03:28:56;6.10;82.60
4908;DHT22;64375;51.540;7.364;2023-02-28T03:31:43;6.60;89.30
4908;DHT22;64375;51.540;7.364;2023-02-28T03:34:16;6.50;80.00
4908;DHT22;64375;51.540;7.364;2023-02-28T03:36:48;6.10;75.00
4908;DHT22;64375;51.540;7.364;2023-02-28T03:39:22;5.90;77.20
4908;DHT22;64375;51.540;7.364;2023-02-28T03:41:54;5.90;76.80
4908;DHT22;64375;51.540;7.364;2023-02-28T03:44:30;5.50;74.60
4908;DHT22;64375;51.540;7.364;2023-02-28T03:47:15;5.10;76.00
4908;DHT22;64375;51.540;7.364;2023-02-28T03:49:52;5.50;82.00
4908;DHT22;64375;51.540;7.364;2023-02-28T03:52:27;5.40;76.70
4908;DHT22;64375;51.540;7.364;2023-02-28T03:55:03;5.00;76.00
4908;DHT22;64375;51.540;7.364;2023-02-28T03:57:39;5.00;80.20
4908;DHT22;64375;51.540;7.364;2023-02-28T04:00:15;5.50;85.60
4908;DHT22;64375;51.540;7.364;2023-02-28T04:02:54;5.40;77.50
4908;DHT22;64375;51.540;7.364;2023-02-28T04:05:46;5.10;76.20
4908;DHT22;64375;51.540;7.364;2023-02-28T04:08:16;5.30;79.50
4908;DHT22;64375;51.540;7.364;2023-02-28T04:10:55;5.70;81.20
4908;DHT22;64375;51.540;7.364;2023-02-28T04:13:24;5.30;75.80
4908;DHT22;64375;51.540;7.364;2023-02-28T04:15:57;5.10;77.10
4908;DHT22;64375;51.540;7.364;2023-02-28T04:18:31;5.50;81.20
4908;DHT22;64375;51.540;7.364;2023-02-28T04:21:03;5.70;78.40
4908;DHT22;64375;51.540;7.364;2023-02-28T04:23:37;5.20;74.70
4908;DHT22;64375;51.540;7.364;2023-02-28T04:26:09;5.10;77.40
4908;DHT22;64375;51.540;7.364;2023-02-28T04:28:46;5.40;79.00
4908;DHT22;64375;51.540;7.364;2023-02-28T04:31:31;5.10;75.30
4908;DHT22;64375;51.540;7.364;2023-02-28T04:34:05;4.80;76.10
4908;DHT22;64375;51.540;7.364;2023-02-28T04:36:36;5.00;79.90
4908;DHT22;64375;51.540;7.364;2023-02-28T04:39:07;5.30;79.00
4908;DHT22;64375;51.540;7.364;2023-02-28T04:41:43;5.10;76.30
4908;DHT22;64375;51.540;7.364;2023-02-28T04:44:14;5.20;79.40
4908;DHT22;64375;51.540;7.364;2023-02-28T04:46:43;5.60;82.60
4908;DHT22;64375;51.540;7.364;2023-02-28T04:49:12;5.40;75.80
4908;DHT22;64375;51.540;7.364;2023-02-28T04:51:42;5.10;75.60
4908;DHT22;64375;51.540;7.364;2023-02-28T04:54:10;5.20;77.20
4908;DHT22;64375;51.540;7.364;2023-02-28T04:56:44;5.30;77.00
4908;DHT22;64375;51.540;7.364;2023-02-28T04:59:14;4.90;74.70
4908;DHT22;64375;51.540;7.364;2023-02-28T05:01:46;5.00;79.40
4908;DHT22;64375;51.540;7.364;2023-02-28T05:04:14;5.30;81.50
4908;DHT22;64375;51.540;7.364;2023-02-28T05:06:44;5.30;76.30
4908;DHT22;64375;51.540;7.364;2023-02-28T05:09:12;5.10;76.80
4908;DHT22;64375;51.540;7.364;2023-02-28T05:11:41;5.60;85.60
4908;DHT22;64375;51.540;7.364;2023-02-28T05:14:12;5.80;79.60
4908;DHT22;64375;51.540;7.364;2023-02-28T05:16:45;5.30;75.10
4908;DHT22;64375;51.540;7.364;2023-02-28T05:19:14;5.70;84.70
4908;DHT22;64375;51.540;7.364;2023-02-28T05:21:52;6.00;86.30
4908;DHT22;64375;51.540;7.364;2023-02-28T05:24:22;6.30;83.50
4908;DHT22;64375;51.540;7.364;2023-02-28T05:26:54;6.10;77.60
4908;DHT22;64375;51.540;7.364;2023-02-28T05:29:34;6.50;86.80
4908;DHT22;64375;51.540;7.364;2023-02-28T05:32:10;6.70;85.60
4908;DHT22;64375;51.540;7.364;2023-02-28T05:34:38;6.40;75.50
4908;DHT22;64375;51.540;7.364;2023-02-28T05:37:11;6.30;78.30
4908;DHT22;64375;51.540;7.364;2023-02-28T05:39:40;6.40;78.60
4908;DHT22;64375;51.540;7.364;2023-02-28T05:42:08;6.40;76.30
4908;DHT22;64375;51.540;7.364;2023-02-28T05:44:38;6.00;75.20
4908;DHT22;64375;51.540;7.364;2023-02-28T05:47:11;6.30;83.00
4908;DHT22;64375;51.540;7.364;2023-02-28T05:49:42;6.80;88.70
4908;DHT22;64375;51.540;7.364;2023-02-28T05:52:18;6.50;77.50
4908;DHT22;64375;51.540;7.364;2023-02-28T05:54:56;6.60;82.90
4908;DHT22;64375;51.540;7.364;2023-02-28T05:57:24;6.90;87.70
4908;DHT22;64375;51.540;7.364;2023-02-28T05:59:56;6.80;78.30
4908;DHT22;64375;51.540;7.364;2023-02-28T06:02:27;6.40;75.00
4908;DHT22;64375;51.540;7.364;2023-02-28T06:04:57;6.80;84.30
4908;DHT22;64375;51.540;7.364;2023-02-28T06:07:37;7.20;89.10
4908;DHT22;64375;51.540;7.364;2023-02-28T06:10:11;7.40;88.30
4908;DHT22;64375;51.540;7.364;2023-02-28T06:12:39;7.50;84.50
4908;DHT22;64375;51.540;7.364;2023-02-28T06:15:13;7.80;89.90
4908;DHT22;64375;51.540;7.364;2023-02-28T06:17:42;7.90;89.40
4908;DHT22;64375;51.540;7.364;2023-02-28T06:20:11;7.50;79.00
4908;DHT22;64375;51.540;7.364;2023-02-28T06:22:43;7.60;81.40
4908;DHT22;64375;51.540;7.364;2023-02-28T06:25:11;7.60;81.50
4908;DHT22;64375;51.540;7.364;2023-02-28T06:27:39;7.50;78.90
4908;DHT22;64375;51.540;7.364;2023-02-28T06:30:08;6.90;71.60
4908;DHT22;64375;51.540;7.364;2023-02-28T06:32:37;6.30;71.30
4908;DHT22;64375;51.540;7.364;2023-02-28T06:35:11;6.20;74.60
4908;DHT22;64375;51.540;7.364;2023-02-28T06:37:40;6.10;74.20
4908;DHT22;64375;51.540;7.364;2023-02-28T06:40:09;6.20;76.90
4908;DHT22;64375;51.540;7.364;2023-02-28T06:42:37;6.00;72.90
4908;DHT22;64375;51.540;7.364;2023-02-28T06:45:06;6.20;80.00
4908;DHT22;64375;51.540;7.364;2023-02-28T06:47:38;6.60;84.70
4908;DHT22;64375;51.540;7.364;2023-02-28T06:50:17;6.00;73.00
4908;DHT22;64375;51.540;7.364;2023-02-28T06:52:47;5.80;73.70
4908;DHT22;64375;51.540;7.364;2023-02-28T06:55:15;6.00;77.00
4908;DHT22;64375;51.540;7.364;2023-02-28T06:57:44;5.90;74.40
4908;DHT22;64375;51.540;7.364;2023-02-28T07:00:13;6.10;80.10
4908;DHT22;64375;51.540;7.364;2023-02-28T07:02:43;6.60;88.00
4908;DHT22;64375;51.540;7.364;2023-02-28T07:05:14;7.20;90.40
4908;DHT22;64375;51.540;7.364;2023-02-28T07:07:51;7.60;90.40
4908;DHT22;64375;51.540;7.364;2023-02-28T07:10:28;7.90;90.30
4908;DHT22;64375;51.540;7.364;2023-02-28T07:13:03;8.10;89.90
4908;DHT22;64375;51.540;7.364;2023-02-28T07:15:32;8.10;85.70
4908;DHT22;64375;51.540;7.364;2023-02-28T07:18:10;8.10;86.50
4908;DHT22;64375;51.540;7.364;2023-02-28T07:20:37;8.40;88.90
4908;DHT22;64375;51.540;7.364;2023-02-28T07:23:11;8.40;84.60
4908;DHT22;64375;51.540;7.364;2023-02-28T07:25:39;8.00;79.50
4908;DHT22;64375;51.540;7.364;2023-02-28T07:28:10;8.00;83.40
4908;DHT22;64375;51.540;7.364;2023-02-28T07:30:38;7.70;76.80
4908;DHT22;64375;51.540;7.364;2023-02-28T07:33:08;7.20;71.90
4908;DHT22;64375;51.540;7.364;2023-02-28T07:35:41;6.80;73.20
4908;DHT22;64375;51.540;7.364;2023-02-28T07:38:09;6.80;74.30
4908;DHT22;64375;51.540;7.364;2023-02-28T07:40:39;6.40;71.30
4908;DHT22;64375;51.540;7.364;2023-02-28T07:43:10;5.10;72.60
4908;DHT22;64375;51.540;7.364;2023-02-28T07:45:38;5.20;74.50
4908;DHT22;64375;51.540;7.364;2023-02-28T07:48:08;5.00;73.20
4908;DHT22;64375;51.540;7.364;2023-02-28T07:50:38;4.90;76.40
4908;DHT22;64375;51.540;7.364;2023-02-28T07:53:06;5.00;75.90
4908;DHT22;64375;51.540;7.364;2023-02-28T07:55:33;5.50;86.50
4908;DHT22;64375;51.540;7.364;2023-02-28T07:58:07;5.20;75.00
4908;DHT22;64375;51.540;7.364;2023-02-28T08:00:35;5.00;74.30
4908;DHT22;64375;51.540;7.364;2023-02-28T08:03:03;4.90;75.70
4908;DHT22;64375;51.540;7.364;2023-02-28T08:05:39;5.10;78.60
4908;DHT22;64375;51.540;7.364;2023-02-28T08:08:08;4.90;74.10
4908;DHT22;64375;51.540;7.364;2023-02-28T08:10:36;4.40;74.60
4908;DHT22;64375;51.540;7.364;2023-02-28T08:13:04;4.20;75.80
4908;DHT22;64375;51.540;7.364;2023-02-28T08:15:40;4.40;78.80
4908;DHT22;64375;51.540;7.364;2023-02-28T08:18:08;4.60;86.90
4908;DHT22;64375;51.540;7.364;2023-02-28T08:20:40;5.10;83.60
4908;DHT22;64375;51.540;7.364;2023-02-28T08:23:11;5.10;80.70
4908;DHT22;64375;51.540;7.364;2023-02-28T08:25:41;5.60;90.20
4908;DHT22;64375;51.540;7.364;2023-02-28T08:28:10;6.20;82.90
4908;DHT22;64375;51.540;7.364;2023-02-28T08:30:42;6.40;73.40
4908;DHT22;64375;51.540;7.364;2023-02-28T08:33:12;5.30;72.90
4908;DHT22;64375;51.540;7.364;2023-02-28T08:35:44;5.10;73.10
4908;DHT22;64375;51.540;7.364;2023-02-28T08:38:11;4.70;73.80
4908;DHT22;64375;51.540;7.364;2023-02-28T08:40:39;4.60;75.40
4908;DHT22;64375;51.540;7.364;2023-02-28T08:43:13;4.20;74.70
4908;DHT22;64375;51.540;7.364;2023-02-28T08:45:41;4.00;75.00
4908;DHT22;64375;51.540;7.364;2023-02-28T08:48:09;3.80;76.20
4908;DHT22;64375;51.540;7.364;2023-02-28T08:50:37;3.80;77.50
4908;DHT22;64375;51.540;7.364;2023-02-28T08:53:06;3.80;77.50
4908;DHT22;64375;51.540;7.364;2023-02-28T08:55:35;3.50;77.70
4908;DHT22;64375;51.540;7.364;2023-02-28T08:58:03;3.30;80.30
4908;DHT22;64375;51.540;7.364;2023-02-28T09:00:33;3.20;77.00
4908;DHT22;64375;51.540;7.364;2023-02-28T09:03:03;3.40;80.50
4908;DHT22;64375;51.540;7.364;2023-02-28T09:05:31;3.60;78.20
4908;DHT22;64375;51.540;7.364;2023-02-28T09:07:59;3.90;78.10
4908;DHT22;64375;51.540;7.364;2023-02-28T09:10:31;4.00;76.80
4908;DHT22;64375;51.540;7.364;2023-02-28T09:13:02;3.80;76.00
4908;DHT22;64375;51.540;7.364;2023-02-28T09:15:29;3.80;75.20
4908;DHT22;64375;51.540;7.364;2023-02-28T09:17:57;3.80;77.60
4908;DHT22;64375;51.540;7.364;2023-02-28T09:20:25;3.60;76.30
4908;DHT22;64375;51.540;7.364;2023-02-28T09:22:53;3.50;75.20
4908;DHT22;64375;51.540;7.364;2023-02-28T09:25:23;3.40;76.00
4908;DHT22;64375;51.540;7.364;2023-02-28T09:27:53;3.50;76.10
4908;DHT22;64375;51.540;7.364;2023-02-28T09:30:21;3.40;75.20
4908;DHT22;64375;51.540;7.364;2023-02-28T09:32:51;3.50;76.00
4908;DHT22;64375;51.540;7.364;2023-02-28T09:35:20;3.50;76.70
4908;DHT22;64375;51.540;7.364;2023-02-28T09:38:01;3.30;74.90
4908;DHT22;64375;51.540;7.364;2023-02-28T09:40:30;3.30;75.70
4908;DHT22;64375;51.540;7.364;2023-02-28T09:42:59;3.40;76.80
4908;DHT22;64375;51.540;7.364;2023-02-28T09:45:30;3.60;77.50
4908;DHT22;64375;51.540;7.364;2023-02-28T09:48:12;3.50;76.00
4908;DHT22;64375;51.540;7.364;2023-02-28T09:50:45;3.50;76.50
4908;DHT22;64375;51.540;7.364;2023-02-28T09:53:19;3.70;74.90
4908;DHT22;64375;51.540;7.364;2023-02-28T09:55:51;3.80;77.30
4908;DHT22;64375;51.540;7.364;2023-02-28T09:58:28;3.80;74.40
4908;DHT22;64375;51.540;7.364;2023-02-28T10:01:03;3.70;74.60
4908;DHT22;64375;51.540;7.364;2023-02-28T10:03:36;3.80;75.30
4908;DHT22;64375;51.540;7.364;2023-02-28T10:06:11;3.90;75.20
4908;DHT22;64375;51.540;7.364;2023-02-28T10:08:47;4.00;74.00
4908;DHT22;64375;51.540;7.364;2023-02-28T10:11:26;4.10;76.10
4908;DHT22;64375;51.540;7.364;2023-02-28T10:14:02;3.80;73.50
4908;DHT22;64375;51.540;7.364;2023-02-28T10:16:38;3.80;73.20
4908;DHT22;64375;51.540;7.364;2023-02-28T10:19:16;3.70;73.60
4908;DHT22;64375;51.540;7.364;2023-02-28T10:21:51;3.80;73.20
4908;DHT22;64375;51.540;7.364;2023-02-28T10:24:32;3.90;72.30
4908;DHT22;64375;51.540;7.364;2023-02-28T10:27:12;3.90;71.60
4908;DHT22;64375;51.540;7.364;2023-02-28T10:29:47;4.00;73.00
4908;DHT22;64375;51.540;7.364;2023-02-28T10:32:17;3.90;71.00
4908;DHT22;64375;51.540;7.364;2023-02-28T10:34:53;3.80;69.20
4908;DHT22;64375;51.540;7.364;2023-02-28T10:37:23;3.80;71.20
4908;DHT22;64375;51.540;7.364;2023-02-28T10:39:51;3.90;70.40
4908;DHT22;64375;51.540;7.364;2023-02-28T10:42:21;4.00;69.10
4908;DHT22;64375;51.540;7.364;2023-02-28T10:45:12;4.10;69.20
4908;DHT22;64375;51.540;7.364;2023-02-28T10:47:53;4.00;66.00
4908;DHT22;64375;51.540;7.364;2023-02-28T10:50:31;4.10;71.60
4908;DHT22;64375;51.540;7.364;2023-02-28T10:53:32;4.10;66.10
4908;DHT22;64375;51.540;7.364;2023-02-28T10:56:21;4.10;66.30
4908;DHT22;64375;51.540;7.364;2023-02-28T10:58:55;4.20;66.70
4908;DHT22;64375;51.540;7.364;2023-02-28T11:01:35;4.10;65.70
4908;DHT22;64375;51.540;7.364;2023-02-28T11:04:16;4.20;66.60
4908;DHT22;64375;51.540;7.364;2023-02-28T11:06:46;4.20;66.30
4908;DHT22;64375;51.540;7.364;2023-02-28T11:09:27;4.20;66.40
4908;DHT22;64375;51.540;7.364;2023-02-28T11:12:07;4.20;65.20
4908;DHT22;64375;51.540;7.364;2023-02-28T11:14:46;4.20;65.00
4908;DHT22;64375;51.540;7.364;2023-02-28T11:17:28;4.20;66.60
4908;DHT22;64375;51.540;7.364;2023-02-28T11:20:00;4.40;67.70
4908;DHT22;64375;51.540;7.364;2023-02-28T11:22:32;4.50;68.60
4908;DHT22;64375;51.540;7.364;2023-02-28T11:25:22;4.70;69.10
4908;DHT22;64375;51.540;7.364;2023-02-28T11:27:51;4.70;66.30
4908;DHT22;64375;51.540;7.364;2023-02-28T11:30:38;4.40;65.90
4908;DHT22;64375;51.540;7.364;2023-02-28T11:33:26;4.50;66.80
4908;DHT22;64375;51.540;7.364;2023-02-28T11:36:01;4.60;67.10
4908;DHT22;64375;51.540;7.364;2023-02-28T11:38:32;4.60;67.20
4908;DHT22;64375;51.540;7.364;2023-02-28T11:41:16;4.70;66.80
4908;DHT22;64375;51.540;7.364;2023-02-28T11:44:03;4.70;67.30
4908;DHT22;64375;51.540;7.364;2023-02-28T11:46:37;4.70;66.50
4908;DHT22;64375;51.540;7.364;2023-02-28T11:49:22;4.60;67.10
4908;DHT22;64375;51.540;7.364;2023-02-28T11:52:00;4.70;67.70
4908;DHT22;64375;51.540;7.364;2023-02-28T11:54:42;4.80;67.60
4908;DHT22;64375;51.540;7.364;2023-02-28T11:57:24;4.80;68.80
4908;DHT22;64375;51.540;7.364;2023-02-28T12:00:02;4.80;67.90
4908;DHT22;64375;51.540;7.364;2023-02-28T12:02:37;4.80;68.20
4908;DHT22;64375;51.540;7.364;2023-02-28T12:05:24;4.80;68.90
4908;DHT22;64375;51.540;7.364;2023-02-28T12:08:05;5.00;69.20
4908;DHT22;64375;51.540;7.364;2023-02-28T12:10:48;5.10;69.80
4908;DHT22;64375;51.540;7.364;2023-02-28T12:13:24;5.30;70.10
4908;DHT22;64375;51.540;7.364;2023-02-28T12:19:00;5.20;70.50
4908;DHT22;64375;51.540;7.364;2023-02-28T12:21:56;5.30;69.10
4908;DHT22;64375;51.540;7.364;2023-02-28T12:24:39;5.40;69.80
4908;DHT22;64375;51.540;7.364;2023-02-28T12:27:21;5.60;69.40
4908;DHT22;64375;51.540;7.364;2023-02-28T12:29:57;5.60;70.40
4908;DHT22;64375;51.540;7.364;2023-02-28T12:32:31;5.70;69.60
4908;DHT22;64375;51.540;7.364;2023-02-28T12:35:14;5.70;69.40
4908;DHT22;64375;51.540;7.364;2023-02-28T12:37:54;5.40;69.40
4908;DHT22;64375;51.540;7.364;2023-02-28T12:40:26;5.60;70.60
4908;DHT22;64375;51.540;7.364;2023-02-28T12:42:58;5.80;70.60
4908;DHT22;64375;51.540;7.364;2023-02-28T12:45:40;5.70;69.70
4908;DHT22;64375;51.540;7.364;2023-02-28T12:48:20;5.70;69.60
4908;DHT22;64375;51.540;7.364;2023-02-28T12:50:49;5.70;70.00
4908;DHT22;64375;51.540;7.364;2023-02-28T12:53:24;5.60;69.20
4908;DHT22;64375;51.540;7.364;2023-02-28T12:56:09;5.60;70.10
4908;DHT22;64375;51.540;7.364;2023-02-28T12:58:44;5.60;71.10
4908;DHT22;64375;51.540;7.364;2023-02-28T13:04:56;5.60;70.40
4908;DHT22;64375;51.540;7.364;2023-02-28T13:07:46;5.50;70.40
4908;DHT22;64375;51.540;7.364;2023-02-28T13:10:38;5.70;71.00
4908;DHT22;64375;51.540;7.364;2023-02-28T13:13:06;5.60;70.10
4908;DHT22;64375;51.540;7.364;2023-02-28T13:16:08;5.60;69.70
4908;DHT22;64375;51.540;7.364;2023-02-28T13:18:38;5.60;69.70
4908;DHT22;64375;51.540;7.364;2023-02-28T13:21:23;5.60;70.50
4908;DHT22;64375;51.540;7.364;2023-02-28T13:24:02;5.60;70.50
4908;DHT22;64375;51.540;7.364;2023-02-28T13:29:42;5.10;71.40
4908;DHT22;64375;51.540;7.364;2023-02-28T13:32:35;5.20;72.00
4908;DHT22;64375;51.540;7.364;2023-02-28T13:38:24;5.40;71.60
4908;DHT22;64375;51.540;7.364;2023-02-28T13:41:44;5.50;70.80
4908;DHT22;64375;51.540;7.364;2023-02-28T13:44:14;5.60;71.50
4908;DHT22;64375;51.540;7.364;2023-02-28T13:50:31;5.70;73.80
4908;DHT22;64375;51.540;7.364;2023-02-28T13:53:34;5.80;72.10
4908;DHT22;64375;51.540;7.364;2023-02-28T13:56:35;5.80;71.50
4908;DHT22;64375;51.540;7.364;2023-02-28T13:59:23;5.60;70.80
4908;DHT22;64375;51.540;7.364;2023-02-28T14:02:11;5.70;72.40
4908;DHT22;64375;51.540;7.364;2023-02-28T14:05:00;5.80;72.00
4908;DHT22;64375;51.540;7.364;2023-02-28T14:07:33;5.50;71.80
4908;DHT22;64375;51.540;7.364;2023-02-28T14:10:15;5.80;75.90
4908;DHT22;64375;51.540;7.364;2023-02-28T14:13:36;5.80;72.10
4908;DHT22;64375;51.540;7.364;2023-02-28T14:16:06;6.00;72.60
4908;DHT22;64375;51.540;7.364;2023-02-28T14:18:37;6.10;70.70
4908;DHT22;64375;51.540;7.364;2023-02-28T14:21:19;6.20;71.50
4908;DHT22;64375;51.540;7.364;2023-02-28T14:24:29;6.10;70.40
4908;DHT22;64375;51.540;7.364;2023-02-28T14:27:32;5.90;69.90
4908;DHT22;64375;51.540;7.364;2023-02-28T14:30:29;5.60;69.50
4908;DHT22;64375;51.540;7.364;2023-02-28T14:33:23;5.70;73.10
4908;DHT22;64375;51.540;7.364;2023-02-28T14:36:16;5.90;70.50
4908;DHT22;64375;51.540;7.364;2023-02-28T14:38:46;5.70;70.50
4908;DHT22;64375;51.540;7.364;2023-02-28T14:41:21;5.70;70.80
4908;DHT22;64375;51.540;7.364;2023-02-28T14:43:55;5.70;70.10
4908;DHT22;64375;51.540;7.364;2023-02-28T14:46:26;5.60;70.40
4908;DHT22;64375;51.540;7.364;2023-02-28T14:49:00;5.60;70.30
4908;DHT22;64375;51.540;7.364;2023-02-28T14:51:28;5.50;70.50
4908;DHT22;64375;51.540;7.364;2023-02-28T14:54:01;5.40;71.00
4908;DHT22;64375;51.540;7.364;2023-02-28T14:56:34;5.40;71.40
4908;DHT22;64375;51.540;7.364;2023-02-28T14:59:04;5.50;72.40
4908;DHT22;64375;51.540;7.364;2023-02-28T15:01:35;5.60;71.50
4908;DHT22;64375;51.540;7.364;2023-02-28T15:04:20;5.80;71.30
4908;DHT22;64375;51.540;7.364;2023-02-28T15:07:08;5.90;72.40
4908;DHT22;64375;51.540;7.364;2023-02-28T15:09:35;6.10;76.00
4908;DHT22;64375;51.540;7.364;2023-02-28T15:12:04;6.30;73.80
4908;DHT22;64375;51.540;7.364;2023-02-28T15:14:35;6.40;72.00
4908;DHT22;64375;51.540;7.364;2023-02-28T15:17:19;6.30;72.10
4908;DHT22;64375;51.540;7.364;2023-02-28T15:19:52;6.30;72.20
4908;DHT22;64375;51.540;7.364;2023-02-28T15:22:26;6.20;72.20
4908;DHT22;64375;51.540;7.364;2023-02-28T15:24:59;6.30;72.10
4908;DHT22;64375;51.540;7.364;2023-02-28T15:27:28;6.30;71.60
4908;DHT22;64375;51.540;7.364;2023-02-28T15:30:04;6.20;71.60
4908;DHT22;64375;51.540;7.364;2023-02-28T15:32:37;6.00;72.00
4908;DHT22;64375;51.540;7.364;2023-02-28T15:35:28;6.10;71.70
4908;DHT22;64375;51.540;7.364;2023-02-28T15:37:57;6.00;71.70
4908;DHT22;64375;51.540;7.364;2023-02-28T15:40:29;6.00;72.20
4908;DHT22;64375;51.540;7.364;2023-02-28T15:43:07;5.90;72.30
4908;DHT22;64375;51.540;7.364;2023-02-28T15:45:37;5.70;72.00
4908;DHT22;64375;51.540;7.364;2023-02-28T15:48:17;5.60;72.30
4908;DHT22;64375;51.540;7.364;2023-02-28T15:50:50;5.60;72.20
4908;DHT22;64375;51.540;7.364;2023-02-28T15:53:30;5.60;72.10
4908;DHT22;64375;51.540;7.364;2023-02-28T15:56:01;5.60;72.50
4908;DHT22;64375;51.540;7.364;2023-02-28T15:58:33;5.60;71.80
4908;DHT22;64375;51.540;7.364;2023-02-28T16:01:15;5.60;70.80
4908;DHT22;64375;51.540;7.364;2023-02-28T16:03:47;5.70;71.10
4908;DHT22;64375;51.540;7.364;2023-02-28T16:06:39;5.70;71.10
4908;DHT22;64375;51.540;7.364;2023-02-28T16:09:12;5.80;71.10
4908;DHT22;64375;51.540;7.364;2023-02-28T16:11:50;5.70;71.20
4908;DHT22;64375;51.540;7.364;2023-02-28T16:14:22;5.70;71.30
4908;DHT22;64375;51.540;7.364;2023-02-28T16:16:51;5.70;72.10
4908;DHT22;64375;51.540;7.364;2023-02-28T16:19:20;5.70;72.10
4908;DHT22;64375;51.540;7.364;2023-02-28T16:21:52;5.90;72.20
4908;DHT22;64375;51.540;7.364;2023-02-28T16:24:23;5.90;71.30
4908;DHT22;64375;51.540;7.364;2023-02-28T16:26:59;5.90;71.10
4908;DHT22;64375;51.540;7.364;2023-02-28T16:29:31;5.90;71.80
4908;DHT22;64375;51.540;7.364;2023-02-28T16:31:59;5.90;71.50
4908;DHT22;64375;51.540;7.364;2023-02-28T16:34:28;5.80;70.60
4908;DHT22;64375;51.540;7.364;2023-02-28T16:36:57;5.90;71.60
4908;DHT22;64375;51.540;7.364;2023-02-28T16:39:25;6.00;70.20
4908;DHT22;64375;51.540;7.364;2023-02-28T16:41:56;5.90;70.50
4908;DHT22;64375;51.540;7.364;2023-02-28T16:44:28;6.00;70.50
4908;DHT22;64375;51.540;7.364;2023-02-28T16:46:57;5.90;70.90
4908;DHT22;64375;51.540;7.364;2023-02-28T16:49:33;5.90;70.50
4908;DHT22;64375;51.540;7.364;2023-02-28T16:52:02;5.80;71.70
4908;DHT22;64375;51.540;7.364;2023-02-28T16:54:33;5.70;70.90
4908;DHT22;64375;51.540;7.364;2023-02-28T16:57:02;5.70;71.10
4908;DHT22;64375;51.540;7.364;2023-02-28T16:59:29;5.60;71.40
4908;DHT22;64375;51.540;7.364;2023-02-28T17:02:09;5.60;71.30
4908;DHT22;64375;51.540;7.364;2023-02-28T17:04:46;5.60;71.20
4908;DHT22;64375;51.540;7.364;2023-02-28T17:07:16;5.50;71.80
4908;DHT22;64375;51.540;7.364;2023-02-28T17:09:44;5.60;71.80
4908;DHT22;64375;51.540;7.364;2023-02-28T17:12:13;5.60;71.70
4908;DHT22;64375;51.540;7.364;2023-02-28T17:14:41;5.70;72.00
4908;DHT22;64375;51.540;7.364;2023-02-28T17:17:17;5.70;71.00
4908;DHT22;64375;51.540;7.364;2023-02-28T17:19:49;5.70;71.20
4908;DHT22;64375;51.540;7.364;2023-02-28T17:22:21;5.80;71.40